Time;durP1;ratioP1;P1;durP2;ratioP2;P2;SDS_P1;SDS_P2;PMS_P1;PMS_P2;Temp;Humidity;BMP_temperature;BMP_pressure;BME280_temperature;BME280_humidity;BME280_pressure;Samples;Min_cycle;Max_cycle;Signal;HPM_P1;HPM_P2
2023/11/17 00:01:46;;;;;;;5.30;3.60;;;;;;;3.58;100.00;100501.78;5008565;28;20056;-75
2023/11/17 00:04:14;;;;;;;8.65;3.60;;;;;;;3.47;100.00;100493.88;5005773;28;20091;-75
2023/11/17 00:06:40;;;;;;;7.47;3.78;;;;;;;3.61;100.00;100508.59;5005966;28;20034;-75
2023/11/17 00:09:05;;;;;;;6.65;3.25;;;;;;;3.78;100.00;100523.91;5004222;28;20508;-74
2023/11/17 00:11:31;;;;;;;17.67;3.60;;;;;;;3.58;100.00;100511.47;5008771;28;20412;-73
2023/11/17 00:13:57;;;;;;;6.88;3.72;;;;;;;3.59;100.00;100516.63;5008115;28;20030;-75
2023/11/17 00:16:23;;;;;;;11.52;3.95;;;;;;;3.51;100.00;100512.94;5008529;28;20022;-75
2023/11/17 00:18:48;;;;;;;8.00;4.03;;;;;;;3.51;100.00;100520.84;4991895;28;20029;-75
2023/11/17 00:21:15;;;;;;;5.65;3.25;;;;;;;3.48;100.00;100526.38;5008019;28;20052;-75
2023/11/17 00:23:40;;;;;;;;;;;;;;;3.57;100.00;100538.84;4997391;28;20057;-74
2023/11/17 00:26:06;;;;;;;6.35;3.63;;;;;;;3.55;100.00;100528.41;5015592;28;19971;-74
2023/11/17 00:28:39;;;;;;;8.45;3.70;;;;;;;3.50;100.00;100527.09;5009488;28;20477;-75
2023/11/17 00:31:09;;;;;;;6.60;4.43;;;;;;;3.53;100.00;100537.41;5011963;28;20416;-75
2023/11/17 00:33:35;;;;;;;7.15;4.03;;;;;;;3.46;100.00;100533.56;5008338;28;20029;-75
2023/11/17 00:36:00;;;;;;;8.40;4.00;;;;;;;3.44;100.00;100533.72;5007845;28;20037;-73
2023/11/17 00:38:28;;;;;;;11.20;4.50;;;;;;;3.41;100.00;100546.31;5007841;28;20042;-74
2023/11/17 00:40:53;;;;;;;7.50;3.88;;;;;;;3.48;100.00;100539.56;5007453;28;20034;-75
2023/11/17 00:43:19;;;;;;;6.07;3.87;;;;;;;3.41;100.00;100546.31;4999905;28;20051;-76
2023/11/17 00:45:44;;;;;;;7.03;4.13;;;;;;;3.42;100.00;100551.47;5007682;28;20657;-73
2023/11/17 00:48:10;;;;;;;6.50;4.23;;;;;;;3.43;100.00;100562.84;5008059;28;20604;-75
2023/11/17 00:50:37;;;;;;;6.47;4.30;;;;;;;3.52;100.00;100562.97;5007558;28;20639;-74
2023/11/17 00:53:05;;;;;;;5.40;3.45;;;;;;;3.55;100.00;100551.31;5012825;28;20033;-75
2023/11/17 00:55:31;;;;;;;6.78;4.03;;;;;;;3.57;100.00;100560.78;5009162;28;20044;-74
2023/11/17 00:57:58;;;;;;;7.00;4.00;;;;;;;3.57;100.00;100555.53;4990603;28;20030;-76
2023/11/17 01:00:24;;;;;;;6.90;3.72;;;;;;;3.57;100.00;100558.16;5007543;28;20061;-73
2023/11/17 01:02:49;;;;;;;9.67;4.27;;;;;;;3.60;100.00;100559.72;5007589;28;20048;-74
2023/11/17 01:05:15;;;;;;;6.68;4.13;;;;;;;3.65;100.00;100562.81;5024270;28;20288;-75
2023/11/17 01:07:40;;;;;;;7.13;3.85;;;;;;;3.62;100.00;100563.06;5007763;28;20041;-73
2023/11/17 01:10:06;;;;;;;6.18;3.70;;;;;;;3.67;100.00;100576.75;5006734;28;20045;-75
2023/11/17 01:12:34;;;;;;;6.60;3.63;;;;;;;3.59;100.00;100558.88;5013643;28;20029;-75
2023/11/17 01:15:03;;;;;;;5.97;4.15;;;;;;;3.71;100.00;100572.06;5008365;28;20041;-75
2023/11/17 01:17:28;;;;;;;6.38;4.13;;;;;;;3.69;100.00;100563.44;4991244;28;20120;-75
2023/11/17 01:19:56;;;;;;;10.80;4.00;;;;;;;3.76;100.00;100576.00;5023499;28;20373;-76
2023/11/17 01:22:21;;;;;;;;;;;;;;;3.68;100.00;100573.16;5008285;28;20029;-74
2023/11/17 01:24:47;;;;;;;7.68;3.80;;;;;;;3.71;100.00;100577.34;5023528;28;19913;-74
2023/11/17 01:27:13;;;;;;;;;;;;;;;3.57;100.00;100573.16;5007735;28;20029;-75
2023/11/17 01:29:38;;;;;;;6.13;4.00;;;;;;;3.48;100.00;100573.88;5016367;28;19931;-75
2023/11/17 01:32:04;;;;;;;5.53;3.37;;;;;;;3.59;100.00;100581.81;5006865;28;20053;-76
2023/11/17 01:34:29;;;;;;;6.78;3.92;;;;;;;3.57;100.00;100589.84;5005610;28;20474;-76
2023/11/17 01:36:55;;;;;;;6.05;3.33;;;;;;;3.65;100.00;100598.94;5010935;28;20026;-75
2023/11/17 01:39:21;;;;;;;6.47;4.10;;;;;;;3.78;100.00;100605.78;4999014;28;20073;-75
2023/11/17 01:41:47;;;;;;;6.72;3.40;;;;;;;3.72;100.00;100594.84;5010703;28;20265;-75
2023/11/17 01:44:14;;;;;;;6.70;3.88;;;;;;;3.73;100.00;100602.66;5007044;28;20596;-76
2023/11/17 01:46:39;;;;;;;6.97;4.13;;;;;;;3.67;100.00;100602.31;5006990;28;20034;-75
2023/11/17 01:49:05;;;;;;;8.93;4.05;;;;;;;3.70;100.00;100610.84;5007877;28;20227;-75
2023/11/17 01:51:31;;;;;;;10.35;4.28;;;;;;;3.66;100.00;100604.13;4998298;28;20037;-75
2023/11/17 01:53:57;;;;;;;5.15;3.80;;;;;;;3.63;100.00;100600.88;5014474;28;20033;-75
2023/11/17 01:56:24;;;;;;;7.32;3.53;;;;;;;3.72;100.00;100601.00;5006654;28;20048;-76
2023/11/17 01:58:50;;;;;;;9.90;3.53;;;;;;;3.67;100.00;100600.50;5006557;28;20029;-75
2023/11/17 02:01:15;;;;;;;6.32;4.47;;;;;;;3.74;100.00;100612.25;4997750;28;20071;-75
2023/11/17 02:03:42;;;;;;;5.38;3.20;;;;;;;3.72;100.00;100615.97;5006528;28;20492;-75
2023/11/17 02:06:22;;;;;;;6.22;3.60;;;;;;;3.83;100.00;100617.78;5006299;28;20048;-76
2023/11/17 02:09:21;;;;;;;6.47;3.90;;;;;;;3.76;100.00;100625.34;5006328;28;20034;-76
2023/11/17 02:11:58;;;;;;;7.30;4.18;;;;;;;3.67;100.00;100619.00;5010563;28;20022;-76
2023/11/17 02:14:30;;;;;;;7.50;4.28;;;;;;;3.65;100.00;100620.91;5006187;28;20036;-76
2023/11/17 02:17:00;;;;;;;6.35;3.95;;;;;;;3.60;100.00;100615.16;5006254;28;20404;-75
2023/11/17 02:19:38;;;;;;;10.00;4.22;;;;;;;3.65;100.00;100623.53;5018230;28;20400;-76
2023/11/17 02:22:11;;;;;;;6.70;4.15;;;;;;;3.72;100.00;100632.69;5007984;28;20409;-76
2023/11/17 02:24:44;;;;;;;6.43;3.55;;;;;;;3.68;100.00;100628.59;5006667;28;20037;-76
2023/11/17 02:27:25;;;;;;;6.03;3.80;;;;;;;3.68;100.00;100617.22;5006001;28;20025;-76
2023/11/17 02:29:56;;;;;;;7.07;4.20;;;;;;;3.70;100.00;100634.59;5007244;28;20029;-76
2023/11/17 02:32:24;;;;;;;8.40;3.70;;;;;;;3.69;100.00;100627.63;5001086;28;20030;-75
2023/11/17 02:34:53;;;;;;;7.57;3.75;;;;;;;3.68;100.00;100635.69;5001941;28;20024;-75
2023/11/17 02:37:24;;;;;;;6.40;3.38;;;;;;;3.64;100.00;100643.00;5006136;28;20040;-76
2023/11/17 02:39:54;;;;;;;6.00;4.13;;;;;;;3.63;100.00;100643.97;5005564;28;20038;-75
2023/11/17 02:42:24;;;;;;;6.63;3.08;;;;;;;3.55;100.00;100641.06;5008428;28;20040;-75
2023/11/17 02:44:50;;;;;;;5.70;3.58;;;;;;;3.79;100.00;100649.72;5005752;28;20539;-74
2023/11/17 02:47:27;;;;;;;;;;;;;;;3.63;100.00;100640.47;4990099;28;20033;-74
2023/11/17 02:50:00;;;;;;;7.70;4.68;;;;;;;3.65;100.00;100647.31;5005425;28;19913;-76
2023/11/17 02:52:43;;;;;;;6.80;3.53;;;;;;;3.68;100.00;100640.97;5005379;28;20034;-75
2023/11/17 02:55:14;;;;;;;4.82;3.05;;;;;;;3.59;100.00;100653.09;5004827;28;20037;-75
2023/11/17 02:57:40;;;;;;;5.07;3.20;;;;;;;3.61;100.00;100653.81;5005705;28;20038;-76
2023/11/17 03:00:06;;;;;;;;;;;;;;;3.68;100.00;100659.47;5005676;28;20022;-75
2023/11/17 03:02:32;;;;;;;4.25;3.05;;;;;;;3.64;100.00;100663.28;5005106;28;20400;-75
2023/11/17 03:04:57;;;;;;;5.40;3.63;;;;;;;3.64;100.00;100661.47;5005529;28;20030;-76
2023/11/17 03:07:23;;;;;;;5.15;3.63;;;;;;;3.61;100.00;100659.09;4989404;28;20057;-76
2023/11/17 03:09:51;;;;;;;6.38;3.72;;;;;;;3.58;100.00;100656.66;5005415;28;20014;-74
2023/11/17 03:12:17;;;;;;;6.20;3.17;;;;;;;3.70;100.00;100671.56;5001731;28;20034;-75
2023/11/17 03:14:43;;;;;;;5.68;3.63;;;;;;;3.62;100.00;100678.41;5005462;28;20018;-75
2023/11/17 03:17:09;;;;;;;7.60;3.25;;;;;;;3.69;100.00;100685.72;5005070;28;20595;-75
2023/11/17 03:19:36;;;;;;;6.20;3.65;;;;;;;3.62;100.00;100679.25;4992062;28;20114;-75
2023/11/17 03:22:03;;;;;;;5.43;3.10;;;;;;;3.48;100.00;100682.09;4999489;28;20757;-76
2023/11/17 03:24:29;;;;;;;5.25;3.22;;;;;;;3.51;100.00;100682.72;5005269;28;20068;-76
2023/11/17 03:26:59;;;;;;;4.63;3.65;;;;;;;3.44;100.00;100685.94;5006404;28;20030;-75
2023/11/17 03:29:25;;;;;;;5.63;3.25;;;;;;;3.55;100.00;100699.16;5005252;28;20039;-75
2023/11/17 03:31:57;;;;;;;6.75;2.97;;;;;;;3.54;100.00;100698.31;4995279;28;20080;-76
2023/11/17 03:34:31;;;;;;;9.10;3.53;;;;;;;3.50;100.00;100696.88;5003113;28;20026;-76
2023/11/17 03:37:01;;;;;;;4.35;2.92;;;;;;;3.59;100.00;100704.06;4987821;28;20044;-74
2023/11/17 03:39:30;;;;;;;6.10;3.95;;;;;;;3.57;100.00;100697.25;5004740;28;20026;-75
2023/11/17 03:41:56;;;;;;;9.32;3.47;;;;;;;3.52;100.00;100702.03;5004820;28;20148;-74
2023/11/17 03:44:25;;;;;;;5.97;3.67;;;;;;;3.54;100.00;100702.75;5008266;28;20053;-76
2023/11/17 03:46:51;;;;;;;8.38;3.78;;;;;;;3.58;100.00;100704.19;5005002;28;20046;-74
2023/11/17 03:49:18;;;;;;;5.85;3.60;;;;;;;3.61;100.00;100706.63;5005366;28;20088;-76
2023/11/17 03:51:44;;;;;;;5.32;3.60;;;;;;;3.48;100.00;100692.66;4988741;28;20037;-76
2023/11/17 03:54:10;;;;;;;7.35;3.95;;;;;;;3.62;100.00;100700.34;5014760;28;20026;-77
2023/11/17 03:56:35;;;;;;;;;;;;;;;3.63;100.00;100712.63;4992508;28;20133;-77
2023/11/17 03:59:04;;;;;;;7.70;3.38;;;;;;;3.57;100.00;100705.16;5004579;28;19992;-76
2023/11/17 04:01:32;;;;;;;5.60;3.97;;;;;;;3.50;100.00;100714.50;5006264;28;20020;-76
2023/11/17 04:03:57;;;;;;;7.95;3.90;;;;;;;3.52;100.00;100709.97;4988622;28;20407;-76
2023/11/17 04:06:22;;;;;;;6.07;4.03;;;;;;;3.53;100.00;100712.47;4989036;28;20025;-77
2023/11/17 04:08:48;;;;;;;4.80;3.10;;;;;;;3.59;100.00;100721.72;5006282;28;20045;-76
2023/11/17 04:11:14;;;;;;;8.13;3.67;;;;;;;3.45;100.00;100706.94;5004831;28;20280;-77
2023/11/17 04:13:44;;;;;;;7.25;3.58;;;;;;;3.56;100.00;100736.00;5004983;28;20033;-75
2023/11/17 04:16:10;;;;;;;7.25;4.82;;;;;;;3.53;100.00;100732.75;5008300;28;20558;-77
2023/11/17 04:18:41;;;;;;;6.57;3.53;;;;;;;3.64;100.00;100745.97;5008360;28;20412;-77
2023/11/17 04:21:07;;;;;;;6.40;3.60;;;;;;;3.59;100.00;100743.69;5012799;28;20041;-76
2023/11/17 04:23:36;;;;;;;6.47;3.70;;;;;;;3.63;100.00;100746.06;4988725;28;20018;-77
2023/11/17 04:26:03;;;;;;;9.35;3.65;;;;;;;3.65;100.00;100754.72;5011342;28;20041;-76
2023/11/17 04:28:28;;;;;;;;;;;;;;;3.54;100.00;100751.13;5005700;28;20026;-76
2023/11/17 04:30:54;;;;;;;7.18;4.30;;;;;;;3.48;100.00;100748.94;5007621;28;20285;-76
2023/11/17 04:33:20;;;;;;;6.63;3.63;;;;;;;3.61;100.00;100761.22;5005964;28;20112;-76
2023/11/17 04:35:46;;;;;;;6.07;3.95;;;;;;;3.45;100.00;100753.63;5004478;28;20489;-75
2023/11/17 04:38:11;;;;;;;7.18;3.53;;;;;;;3.54;100.00;100760.84;5005489;28;20038;-75
2023/11/17 04:40:37;;;;;;;7.30;3.80;;;;;;;3.54;100.00;100755.56;4986995;28;20029;-77
2023/11/17 04:43:08;;;;;;;7.53;4.30;;;;;;;3.57;100.00;100755.31;5004662;28;20524;-77
2023/11/17 04:45:36;;;;;;;7.70;4.40;;;;;;;3.44;100.00;100744.00;5005045;28;20731;-75
2023/11/17 04:48:05;;;;;;;8.02;4.10;;;;;;;3.50;100.00;100760.22;4987517;28;20021;-77
2023/11/17 04:50:31;;;;;;;10.05;4.13;;;;;;;3.48;100.00;100766.56;4998018;28;20045;-75
2023/11/17 04:52:57;;;;;;;7.72;4.05;;;;;;;3.37;100.00;100760.31;5004648;28;20028;-76
2023/11/17 04:55:22;;;;;;;8.95;5.07;;;;;;;3.58;100.00;100772.81;5004874;28;20109;-77
2023/11/17 04:57:48;;;;;;;8.07;4.47;;;;;;;3.59;100.00;100775.38;5007653;28;20025;-75
2023/11/17 05:00:16;;;;;;;8.10;4.47;;;;;;;3.56;100.00;100785.34;5001373;28;20088;-76
2023/11/17 05:02:42;;;;;;;9.38;5.05;;;;;;;3.54;100.00;100790.72;5008440;28;20026;-77
2023/11/17 05:05:10;;;;;;;;;;;;;;;3.64;100.00;100796.13;5008618;28;20041;-77
2023/11/17 05:07:39;;;;;;;8.57;4.63;;;;;;;3.46;100.00;100774.59;5024902;28;19956;-76
2023/11/17 05:10:06;;;;;;;12.80;3.95;;;;;;;3.56;100.00;100788.81;5004739;28;20038;-76
2023/11/17 05:12:32;;;;;;;13.15;4.53;;;;;;;3.65;100.00;100789.03;4991594;28;20040;-76
2023/11/17 05:14:57;;;;;;;;;;;;;;;3.55;100.00;100794.19;5009775;28;20021;-76
2023/11/17 05:17:27;;;;;;;8.95;4.10;;;;;;;3.64;100.00;100801.41;5024748;28;19959;-76
2023/11/17 05:19:53;;;;;;;13.35;5.00;;;;;;;3.51;100.00;100801.53;5007850;28;20026;-76
2023/11/17 05:22:18;;;;;;;11.55;4.93;;;;;;;3.59;100.00;100795.66;4999720;28;20574;-76
2023/11/17 05:24:43;;;;;;;6.75;3.92;;;;;;;3.63;100.00;100805.03;5008266;28;20468;-77
2023/11/17 05:27:09;;;;;;;9.63;4.87;;;;;;;3.62;100.00;100802.50;5007825;28;20053;-76
2023/11/17 05:29:36;;;;;;;10.67;4.70;;;;;;;3.54;100.00;100801.28;5003641;28;20278;-75
2023/11/17 05:32:03;;;;;;;11.48;4.90;;;;;;;3.57;100.00;100808.13;5005194;28;20033;-76
2023/11/17 05:34:28;;;;;;;9.90;5.18;;;;;;;3.73;100.00;100806.00;5007910;28;20021;-77
2023/11/17 05:36:54;;;;;;;9.50;4.78;;;;;;;3.70;100.00;100808.88;5009045;28;20033;-76
2023/11/17 05:39:20;;;;;;;9.70;4.35;;;;;;;3.71;100.00;100815.00;5000950;28;20108;-77
2023/11/17 05:41:46;;;;;;;11.68;6.18;;;;;;;3.70;100.00;100813.28;5007583;28;20481;-76
2023/11/17 05:44:12;;;;;;;8.82;4.65;;;;;;;3.63;100.00;100812.09;5008955;28;20425;-77
2023/11/17 05:46:37;;;;;;;10.52;5.43;;;;;;;3.79;100.00;100824.03;5007704;28;20065;-77
2023/11/17 05:49:04;;;;;;;10.90;5.07;;;;;;;3.83;100.00;100824.63;5008517;28;20025;-76
2023/11/17 05:51:29;;;;;;;8.93;4.78;;;;;;;3.73;100.00;100816.56;5007472;28;20037;-77
2023/11/17 05:53:55;;;;;;;11.95;5.28;;;;;;;3.77;100.00;100825.09;5007524;28;20756;-76
2023/11/17 05:56:21;;;;;;;15.02;5.45;;;;;;;3.78;100.00;100838.19;5009030;28;20034;-76
2023/11/17 05:58:48;;;;;;;9.48;5.25;;;;;;;3.74;100.00;100831.44;5008715;28;20088;-76
2023/11/17 06:01:14;;;;;;;11.15;5.18;;;;;;;3.77;100.00;100831.22;4990636;28;20476;-77
2023/11/17 06:03:39;;;;;;;9.93;5.78;;;;;;;3.92;100.00;100842.41;4991091;28;20103;-76
2023/11/17 06:06:04;;;;;;;16.70;5.77;;;;;;;3.75;100.00;100833.13;5007005;28;20112;-77
2023/11/17 06:08:31;;;;;;;12.23;6.32;;;;;;;3.90;100.00;100838.22;5040781;22;20057;-76
2023/11/17 06:10:58;;;;;;;13.95;6.47;;;;;;;3.85;100.00;100832.44;5026634;28;20025;-77
2023/11/17 06:13:24;;;;;;;17.02;7.85;;;;;;;3.91;100.00;100837.22;5036980;28;20033;-77
2023/11/17 06:15:50;;;;;;;12.80;6.35;;;;;;;3.84;100.00;100825.47;5025262;28;20663;-77
2023/11/17 06:18:16;;;;;;;15.25;6.97;;;;;;;3.80;100.00;100832.78;5017606;28;20042;-77
2023/11/17 06:20:42;;;;;;;12.18;6.22;;;;;;;3.83;100.00;100831.72;5022118;28;20034;-76
2023/11/17 06:23:11;;;;;;;12.88;5.47;;;;;;;3.78;100.00;100832.06;5024932;28;20038;-77
2023/11/17 06:25:36;;;;;;;18.33;7.22;;;;;;;3.76;100.00;100824.25;5032727;28;20025;-77
2023/11/17 06:28:03;;;;;;;10.60;6.13;;;;;;;3.87;100.00;100839.28;5003919;28;20404;-77
2023/11/17 06:30:29;;;;;;;14.75;7.25;;;;;;;3.85;100.00;100853.56;5028534;28;20029;-78
2023/11/17 06:32:55;;;;;;;14.55;6.70;;;;;;;3.81;100.00;100855.59;5029032;28;20818;-78
2023/11/17 06:35:20;;;;;;;17.27;7.03;;;;;;;3.85;100.00;100853.56;5012863;28;20041;-77
2023/11/17 06:37:46;;;;;;;11.35;5.85;;;;;;;3.79;100.00;100855.72;5003524;28;20042;-77
2023/11/17 06:40:11;;;;;;;14.52;7.10;;;;;;;3.71;100.00;100858.09;5020531;28;20495;-78
2023/11/17 06:42:38;;;;;;;12.05;6.82;;;;;;;3.73;100.00;100865.91;5022863;28;20092;-77
2023/11/17 06:45:04;;;;;;;12.73;6.43;;;;;;;3.87;100.00;100868.34;5025675;28;20033;-77
2023/11/17 06:47:30;;;;;;;14.57;6.72;;;;;;;3.80;100.00;100869.75;5032158;28;20024;-76
2023/11/17 06:49:55;;;;;;;12.23;7.03;;;;;;;3.73;100.00;100869.38;5045239;28;20029;-77
2023/11/17 06:52:20;;;;;;;13.43;7.07;;;;;;;3.84;100.00;100880.91;5022283;28;20514;-77
2023/11/17 06:54:46;;;;;;;14.73;6.73;;;;;;;3.90;100.00;100888.41;5016767;28;20609;-77
2023/11/17 06:57:11;;;;;;;10.70;5.97;;;;;;;3.91;100.00;100895.34;5017403;28;20814;-77
2023/11/17 06:59:36;;;;;;;13.40;7.72;;;;;;;3.99;100.00;100906.19;5036693;28;20034;-78
2023/11/17 07:02:03;;;;;;;12.60;7.07;;;;;;;3.93;100.00;100901.38;5011958;28;20042;-78
2023/11/17 07:04:30;;;;;;;15.32;7.38;;;;;;;3.89;100.00;100903.41;5010275;28;20034;-78
2023/11/17 07:06:55;;;;;;;14.70;6.22;;;;;;;3.86;100.00;100913.34;5027846;28;20122;-76
2023/11/17 07:09:23;;;;;;;13.95;6.88;;;;;;;3.91;100.00;100905.91;5028816;28;20061;-78
2023/11/17 07:11:51;;;;;;;13.38;6.43;;;;;;;3.93;100.00;100910.16;5007073;28;20472;-78
2023/11/17 07:14:19;;;;;;;11.43;6.60;;;;;;;3.89;100.00;100911.34;5019107;28;20092;-78
2023/11/17 07:16:45;;;;;;;14.02;6.80;;;;;;;3.97;100.00;100918.66;5029659;28;20202;-78
2023/11/17 07:19:12;;;;;;;12.13;6.28;;;;;;;3.85;100.00;100919.59;5026978;28;20045;-78
2023/11/17 07:21:37;;;;;;;;;;;;;;;3.88;100.00;100922.00;5020847;28;20033;-77
2023/11/17 07:24:06;;;;;;;14.27;7.65;;;;;;;3.90;100.00;100920.94;5044000;28;19912;-77
2023/11/17 07:26:33;;;;;;;12.55;7.18;;;;;;;3.88;100.00;100929.94;5028108;28;20112;-78
2023/11/17 07:28:58;;;;;;;11.05;6.30;;;;;;;3.89;100.00;100927.19;5044302;28;20087;-78
2023/11/17 07:31:23;;;;;;;10.93;6.22;;;;;;;3.68;100.00;100918.22;5045115;28;20037;-78
2023/11/17 07:33:49;;;;;;;13.47;6.77;;;;;;;3.78;100.00;100927.97;5029518;28;20856;-77
2023/11/17 07:36:15;;;;;;;14.13;6.57;;;;;;;3.81;100.00;100932.19;5026193;28;20373;-78
2023/11/17 07:38:42;;;;;;;13.60;6.47;;;;;;;3.92;100.00;100949.88;5009533;28;20052;-78
2023/11/17 07:41:10;;;;;;;10.35;6.40;;;;;;;3.87;100.00;100942.31;5025566;28;20049;-76
2023/11/17 07:43:36;;;;;;;;;;;;;;;3.85;100.00;100953.94;5019160;28;20095;-77
2023/11/17 07:46:02;;;;;;;15.68;6.90;;;;;;;3.93;100.00;100962.13;5000262;28;19917;-78
2023/11/17 07:48:31;;;;;;;14.68;7.30;;;;;;;3.84;100.00;100941.66;5014016;28;20032;-77
2023/11/17 07:50:58;;;;;;;11.73;6.20;;;;;;;3.97;100.00;100960.94;5018286;28;20064;-78
2023/11/17 07:53:24;;;;;;;13.73;6.85;;;;;;;3.88;100.00;100967.75;5027369;28;20061;-77
2023/11/17 07:55:52;;;;;;;13.75;6.50;;;;;;;3.92;100.00;100971.84;5043751;28;20061;-78
2023/11/17 07:58:18;;;;;;;13.13;6.88;;;;;;;3.97;100.00;100974.16;5028759;28;20948;-78
2023/11/17 08:00:47;;;;;;;11.93;6.18;;;;;;;3.93;100.00;100970.91;5027373;28;20502;-77
2023/11/17 08:03:13;;;;;;;13.80;6.47;;;;;;;4.12;100.00;100980.94;5026333;28;20064;-77
2023/11/17 08:05:39;;;;;;;15.50;5.88;;;;;;;4.16;100.00;100978.91;5028202;28;20057;-77
2023/11/17 08:08:04;;;;;;;11.13;6.80;;;;;;;4.08;100.00;100976.84;5027602;28;20820;-78
2023/11/17 08:10:29;;;;;;;15.57;6.93;;;;;;;4.06;100.00;100967.34;5027006;28;20132;-76
2023/11/17 08:12:55;;;;;;;15.17;7.63;;;;;;;4.13;100.00;100979.97;5040895;28;20116;-77
2023/11/17 08:15:20;;;;;;;10.97;6.30;;;;;;;4.13;100.00;100977.34;5026200;28;20041;-77
2023/11/17 08:17:47;;;;;;;10.15;5.60;;;;;;;4.11;100.00;100975.75;5024239;28;20026;-76
2023/11/17 08:20:14;;;;;;;12.85;5.68;;;;;;;4.07;100.00;100967.22;5007433;28;20136;-77
2023/11/17 08:22:40;;;;;;;12.77;6.90;;;;;;;4.08;100.00;100970.72;5043041;28;20038;-77
2023/11/17 08:25:06;;;;;;;;;;;;;;;4.22;100.00;100983.72;5027011;28;20107;-76
2023/11/17 08:27:50;;;;;;;11.73;6.05;;;;;;;4.28;100.00;100990.34;5026739;28;20389;-75
2023/11/17 08:30:16;;;;;;;12.75;7.03;;;;;;;4.31;100.00;100993.63;5026287;28;20100;-76
2023/11/17 08:32:42;;;;;;;12.03;5.63;;;;;;;4.32;100.00;100992.63;5029584;28;20476;-76
2023/11/17 08:35:08;;;;;;;10.02;6.60;;;;;;;4.31;100.00;100993.63;5030504;28;20054;-76
2023/11/17 08:37:33;;;;;;;14.03;6.37;;;;;;;4.55;100.00;101001.47;5004751;28;20029;-77
2023/11/17 08:39:59;;;;;;;14.33;5.73;;;;;;;4.48;100.00;101000.25;5031921;28;20312;-77
2023/11/17 08:42:25;;;;;;;12.63;6.22;;;;;;;4.42;100.00;100998.06;5025168;28;20574;-77
2023/11/17 08:44:50;;;;;;;9.80;5.30;;;;;;;4.29;100.00;100995.53;5021976;28;20108;-76
2023/11/17 08:47:16;;;;;;;8.65;5.60;;;;;;;4.29;100.00;101005.25;5011678;28;20378;-77
2023/11/17 08:49:45;;;;;;;12.05;5.85;;;;;;;4.35;100.00;101005.63;5029665;28;20036;-77
2023/11/17 08:52:10;;;;;;;13.32;5.70;;;;;;;4.37;100.00;101013.44;5029524;28;20080;-76
2023/11/17 08:54:36;;;;;;;15.27;5.63;;;;;;;4.33;100.00;101004.06;5045901;28;20064;-76
2023/11/17 08:57:02;;;;;;;7.38;4.53;;;;;;;4.36;100.00;101006.47;5022641;28;20030;-77
2023/11/17 08:59:29;;;;;;;8.00;4.07;;;;;;;4.58;100.00;101024.19;5022275;28;20037;-77
2023/11/17 09:01:54;;;;;;;8.68;5.43;;;;;;;4.61;100.00;101016.88;5018362;28;20034;-76
2023/11/17 09:04:19;;;;;;;8.52;4.80;;;;;;;4.46;100.00;101007.47;5020820;28;20052;-76
2023/11/17 09:06:45;;;;;;;7.60;4.67;;;;;;;4.64;100.00;101014.00;5024409;28;20037;-76
2023/11/17 09:09:13;;;;;;;6.80;4.28;;;;;;;4.68;100.00;101021.69;5025833;28;20088;-78
2023/11/17 09:11:41;;;;;;;6.07;4.30;;;;;;;4.75;100.00;101022.91;5019906;28;20492;-77
2023/11/17 09:14:06;;;;;;;5.95;3.72;;;;;;;4.69;100.00;101024.22;5028437;28;20538;-77
2023/11/17 09:16:34;;;;;;;6.90;4.70;;;;;;;4.83;100.00;101023.16;5030477;28;20039;-78
2023/11/17 09:19:01;;;;;;;6.47;4.00;;;;;;;4.96;100.00;101026.53;5029129;28;20033;-78
2023/11/17 09:21:29;;;;;;;7.07;4.32;;;;;;;4.50;100.00;101005.44;5012863;28;20060;-77
2023/11/17 09:23:55;;;;;;;7.25;4.15;;;;;;;4.67;100.00;101009.44;5020499;28;20790;-77
2023/11/17 09:26:24;;;;;;;6.60;3.95;;;;;;;4.52;100.00;101001.72;5009886;28;20026;-77
2023/11/17 09:28:49;;;;;;;8.27;5.03;;;;;;;4.70;100.00;101017.13;5021951;28;20554;-77
2023/11/17 09:31:14;;;;;;;7.90;4.60;;;;;;;4.78;100.00;101027.97;5003946;28;20034;-76
2023/11/17 09:33:40;;;;;;;9.90;4.90;;;;;;;4.70;100.00;101025.06;5012561;28;20371;-77
2023/11/17 09:36:06;;;;;;;9.30;4.70;;;;;;;4.82;100.00;101022.31;5029616;28;20395;-77
2023/11/17 09:38:32;;;;;;;;;;;;;;;4.75;100.00;101030.84;5037563;28;20418;-77
2023/11/17 09:40:58;;;;;;;11.70;4.95;;;;;;;4.54;100.00;101026.25;5029766;28;19914;-77
2023/11/17 09:43:24;;;;;;;8.07;4.75;;;;;;;4.72;100.00;101036.38;5028906;28;20038;-77
2023/11/17 09:45:54;;;;;;;9.55;4.82;;;;;;;4.65;100.00;101034.19;5044985;28;20048;-77
2023/11/17 09:48:21;;;;;;;8.43;4.80;;;;;;;4.72;100.00;101044.31;5044922;28;20033;-77
2023/11/17 09:50:50;;;;;;;8.07;4.35;;;;;;;4.74;100.00;101042.38;5021269;28;20494;-77
2023/11/17 09:53:17;;;;;;;8.65;4.45;;;;;;;4.76;100.00;101051.06;5027807;28;20128;-77
2023/11/17 09:55:44;;;;;;;;;;;;;;;4.70;100.00;101033.81;5028950;28;20029;-77
2023/11/17 09:58:12;;;;;;;9.65;4.60;;;;;;;4.75;100.00;101033.47;5021644;28;19924;-77
2023/11/17 10:00:46;;;;;;;6.40;4.22;;;;;;;4.88;100.00;101043.97;5042037;28;20030;-77
2023/11/17 10:03:13;;;;;;;10.77;4.97;;;;;;;4.80;100.00;101032.19;5029461;28;20041;-77
2023/11/17 10:05:40;;;;;;;6.72;4.40;;;;;;;4.97;100.00;101048.56;5028357;28;20484;-77
2023/11/17 10:08:13;;;;;;;5.90;2.63;;;;;;;4.83;100.00;101041.69;5029301;28;20033;-77
2023/11/17 10:10:44;;;;;;;6.85;3.63;;;;;;;4.88;100.00;101036.88;5005882;28;20037;-76
2023/11/17 10:13:13;;;;;;;6.68;3.83;;;;;;;4.93;100.00;101041.81;5025057;28;20266;-76
2023/11/17 10:15:46;;;;;;;6.95;3.65;;;;;;;5.08;100.00;101053.88;5028077;28;20033;-77
2023/11/17 10:18:24;;;;;;;6.93;3.65;;;;;;;5.27;100.00;101056.75;5027755;28;20116;-76
2023/11/17 10:20:51;;;;;;;7.57;4.45;;;;;;;5.39;100.00;101059.41;5023268;28;20045;-76
2023/11/17 10:23:16;;;;;;;;;;;;;;;5.35;100.00;101056.13;5017509;28;20033;-76
2023/11/17 10:25:43;;;;;;;6.35;3.47;;;;;;;4.98;100.00;101042.28;5028138;28;19913;-77
2023/11/17 10:28:09;;;;;;;7.30;3.38;;;;;;;5.01;100.00;101044.69;5029400;28;20036;-77
2023/11/17 10:30:37;;;;;;;6.00;3.92;;;;;;;4.75;100.00;101029.06;5041687;28;20025;-77
2023/11/17 10:33:06;;;;;;;9.77;4.70;;;;;;;4.89;100.00;101046.47;5027592;28;20048;-76
2023/11/17 10:35:34;;;;;;;5.68;3.90;;;;;;;5.07;100.00;101060.94;5027534;28;20091;-76
2023/11/17 10:38:04;;;;;;;6.97;4.15;;;;;;;5.01;100.00;101045.56;5010928;28;20048;-77
2023/11/17 10:40:35;;;;;;;6.25;4.50;;;;;;;4.92;100.00;101034.84;5011188;28;20075;-76
2023/11/17 10:43:10;;;;;;;10.38;4.60;;;;;;;5.03;100.00;101034.81;5038172;28;20042;-77
2023/11/17 10:45:46;;;;;;;6.63;3.65;;;;;;;5.04;100.00;101039.19;5035922;28;20041;-75
2023/11/17 10:48:13;;;;;;;7.63;4.15;;;;;;;5.28;100.00;101062.88;5027294;28;20506;-77
2023/11/17 10:50:43;;;;;;;6.05;4.60;;;;;;;5.36;100.00;101071.06;5012806;28;20044;-77
2023/11/17 10:53:24;;;;;;;10.18;4.50;;;;;;;5.29;100.00;101053.97;5027858;28;20025;-76
2023/11/17 10:55:57;;;;;;;5.75;3.63;;;;;;;5.21;100.00;101043.97;5025608;28;20029;-77
2023/11/17 10:58:24;;;;;;;8.70;3.15;;;;;;;5.22;100.00;101037.75;5026943;28;20038;-77
2023/11/17 11:00:50;;;;;;;10.10;3.30;;;;;;;5.34;100.00;101035.94;5020207;28;20057;-76
2023/11/17 11:03:22;;;;;;;8.43;3.95;;;;;;;5.38;100.00;101037.34;5025829;28;20029;-76
2023/11/17 11:05:48;;;;;;;7.70;4.30;;;;;;;5.17;100.00;101029.28;5014705;28;20037;-76
2023/11/17 11:08:18;;;;;;;7.68;3.70;;;;;;;5.36;100.00;101044.59;5026390;28;20124;-76
2023/11/17 11:10:52;;;;;;;6.45;3.88;;;;;;;5.44;100.00;101058.06;5024992;28;20095;-77
2023/11/17 11:13:20;;;;;;;7.20;3.97;;;;;;;5.41;100.00;101055.66;5024125;28;20041;-76
2023/11/17 11:15:55;;;;;;;5.32;3.42;;;;;;;5.29;100.00;101049.53;5026289;28;20106;-76
2023/11/17 11:18:20;;;;;;;6.53;2.83;;;;;;;5.34;100.00;101061.53;5017744;28;20045;-76
2023/11/17 11:20:46;;;;;;;5.43;3.57;;;;;;;5.56;100.00;101089.84;5026904;28;20116;-76
2023/11/17 11:23:12;;;;;;;9.52;4.18;;;;;;;5.33;100.00;101054.56;5026600;28;20037;-76
2023/11/17 11:25:40;;;;;;;5.13;3.45;;;;;;;5.28;100.00;101047.81;5027405;28;20036;-76
2023/11/17 11:28:07;;;;;;;5.65;3.17;;;;;;;5.13;100.00;101032.31;5026103;28;20052;-76